Time;durP1;ratioP1;P1;durP2;ratioP2;P2;SDS_P1;SDS_P2;PMS_P1;PMS_P2;Temp;Humidity;BMP_temperature;BMP_pressure;BME280_temperature;BME280_humidity;BME280_pressure;Samples;Min_cycle;Max_cycle;Signal;HPM_P1;HPM_P2
2021/03/21 00:01:36;;;;;;;0.13;0.00;;;19.90;36.30;;;;;;5024536;28;20024;-84
2021/03/21 00:04:02;;;;;;;0.30;0.00;;;19.80;36.30;;;;;;5059433;28;20055;-85
2021/03/21 00:06:27;;;;;;;0.32;0.05;;;19.90;36.40;;;;;;5042328;28;20024;-84
2021/03/21 00:08:53;;;;;;;1.20;0.10;;;19.90;36.40;;;;;;5063527;28;20089;-85
2021/03/21 00:11:19;;;;;;;1.02;0.17;;;19.80;36.30;;;;;;5029987;28;20135;-86
2021/03/21 00:13:45;;;;;;;0.10;0.00;;;19.80;36.30;;;;;;5027650;28;20028;-85
2021/03/21 00:16:11;;;;;;;0.98;0.10;;;19.80;36.30;;;;;;5026336;28;20515;-86
2021/03/21 00:18:39;;;;;;;1.98;0.10;;;19.80;36.30;;;;;;5028698;28;20066;-86
2021/03/21 00:21:07;;;;;;;0.28;0.10;;;19.80;36.30;;;;;;5028460;28;20492;-85
2021/03/21 00:23:33;;;;;;;0.30;0.10;;;19.80;36.30;;;;;;5027396;28;20025;-86
2021/03/21 00:25:59;;;;;;;0.25;0.10;;;19.80;36.30;;;;;;5031389;28;20480;-85
2021/03/21 00:28:28;;;;;;;0.28;0.08;;;19.80;36.40;;;;;;5042900;28;20488;-85
2021/03/21 00:30:54;;;;;;;0.25;0.10;;;19.80;36.40;;;;;;5030515;28;20539;-85
2021/03/21 00:33:24;;;;;;;0.20;0.10;;;19.80;36.40;;;;;;5026810;28;20118;-85
2021/03/21 00:35:51;;;;;;;0.20;0.10;;;19.80;36.40;;;;;;5040094;28;20481;-85
2021/03/21 00:38:19;;;;;;;0.20;0.10;;;19.80;36.40;;;;;;5045728;28;20037;-84
2021/03/21 00:40:45;;;;;;;0.22;0.10;;;19.70;36.30;;;;;;5032238;28;20120;-85
2021/03/21 00:43:10;;;;;;;1.00;0.10;;;19.80;36.40;;;;;;5029237;28;20045;-85
2021/03/21 00:45:36;;;;;;;0.38;0.00;;;19.70;36.40;;;;;;5058658;28;20005;-83
2021/03/21 00:48:03;;;;;;;2.15;0.20;;;19.80;36.40;;;;;;5048737;28;20244;-84
2021/03/21 00:50:33;;;;;;;0.10;0.10;;;19.70;36.30;;;;;;5033102;28;20020;-84
2021/03/21 00:53:00;;;;;;;0.50;0.10;;;19.70;36.30;;;;;;5035093;28;20116;-85
2021/03/21 00:55:26;;;;;;;0.50;0.10;;;19.70;36.40;;;;;;5030914;28;20027;-85
2021/03/21 00:57:52;;;;;;;1.35;0.10;;;19.70;36.40;;;;;;5032712;28;20101;-85
2021/03/21 01:00:21;;;;;;;0.38;0.10;;;19.70;36.40;;;;;;5043452;28;20098;-85
2021/03/21 01:02:46;;;;;;;0.60;0.10;;;19.70;36.40;;;;;;5025665;28;20045;-86
2021/03/21 01:05:18;;;;;;;0.30;0.10;;;19.70;36.40;;;;;;5064446;28;20024;-85
2021/03/21 01:07:44;;;;;;;0.55;0.10;;;19.70;36.40;;;;;;5047826;28;20017;-85
2021/03/21 01:10:10;;;;;;;0.10;0.00;;;19.70;36.40;;;;;;5029057;28;20029;-84
2021/03/21 01:12:36;;;;;;;0.10;0.00;;;19.70;36.40;;;;;;5029575;28;20119;-85
2021/03/21 01:15:03;;;;;;;0.10;0.05;;;19.70;36.40;;;;;;5043890;28;20085;-84
2021/03/21 01:17:29;;;;;;;0.32;0.03;;;19.70;36.40;;;;;;5048863;28;20039;-85
2021/03/21 01:19:54;;;;;;;0.28;0.00;;;19.70;36.40;;;;;;5028149;28;20040;-85
2021/03/21 01:22:20;;;;;;;0.13;0.00;;;19.70;36.50;;;;;;5046276;28;20706;-85
2021/03/21 01:24:46;;;;;;;0.17;0.00;;;19.70;36.40;;;;;;5042191;28;20605;-85
2021/03/21 01:27:11;;;;;;;0.38;0.10;;;19.70;36.50;;;;;;5030200;28;20032;-85
2021/03/21 01:29:37;;;;;;;0.10;0.00;;;19.70;36.50;;;;;;5060626;28;20034;-85
2021/03/21 01:32:07;;;;;;;0.10;0.00;;;19.70;36.50;;;;;;5044453;28;20040;-84
2021/03/21 01:34:33;;;;;;;0.73;0.00;;;19.70;36.50;;;;;;5025818;28;20036;-84
2021/03/21 01:36:59;;;;;;;0.20;0.00;;;19.70;36.50;;;;;;5027261;28;20055;-84
2021/03/21 01:39:26;;;;;;;0.20;0.03;;;19.60;36.50;;;;;;5062167;28;20135;-84
2021/03/21 01:42:05;;;;;;;0.22;0.00;;;19.60;36.50;;;;;;5043986;28;20044;-84
2021/03/21 01:44:31;;;;;;;0.20;0.00;;;19.60;36.50;;;;;;5027895;28;20025;-84
2021/03/21 01:46:57;;;;;;;0.17;0.00;;;19.70;36.50;;;;;;5028570;28;20357;-84
2021/03/21 01:49:31;;;;;;;0.30;0.00;;;19.60;36.50;;;;;;5029325;28;20032;-85
2021/03/21 01:51:58;;;;;;;0.20;0.10;;;19.60;36.50;;;;;;5027310;28;20032;-82
2021/03/21 01:54:25;;;;;;;0.20;0.08;;;19.60;36.50;;;;;;5042627;28;20357;-85
2021/03/21 01:56:51;;;;;;;0.43;0.00;;;19.60;36.50;;;;;;5059468;28;20052;-86
2021/03/21 01:59:24;;;;;;;0.20;0.00;;;19.60;36.50;;;;;;5027731;28;20039;-85
2021/03/21 02:01:51;;;;;;;0.10;0.00;;;19.60;36.60;;;;;;5037900;28;20051;-87
2021/03/21 02:04:17;;;;;;;0.47;0.20;;;19.60;36.50;;;;;;5024131;28;20043;-86
2021/03/21 02:07:19;;;;;;;0.20;0.10;;;19.60;36.60;;;;;;5025107;28;20075;-87
2021/03/21 02:09:50;;;;;;;0.28;0.00;;;19.60;36.50;;;;;;5029137;28;20139;-86
2021/03/21 02:12:48;;;;;;;0.40;0.10;;;19.60;36.50;;;;;;5040378;28;20493;-87
2021/03/21 02:15:31;;;;;;;0.95;0.20;;;19.60;36.60;;;;;;5033140;28;20028;-87
2021/03/21 02:18:21;;;;;;;0.20;0.10;;;19.60;36.50;;;;;;5027210;28;20033;-84
2021/03/21 02:21:19;;;;;;;0.28;0.10;;;19.60;36.50;;;;;;5026583;28;20023;-85
2021/03/21 02:24:41;;;;;;;1.65;0.10;;;19.50;36.70;;;;;;5044011;28;20024;-84
2021/03/21 02:27:34;;;;;;;0.55;0.10;;;19.60;36.50;;;;;;4980009;28;20033;-84
2021/03/21 02:30:26;;;;;;;0.43;0.10;;;19.50;36.50;;;;;;4965897;28;20122;-84
2021/03/21 02:33:00;;;;;;;0.63;0.08;;;19.50;36.50;;;;;;4953046;28;20047;-84
2021/03/21 02:35:31;;;;;;;0.25;0.10;;;19.60;36.60;;;;;;4966753;28;20030;-84
2021/03/21 02:38:07;;;;;;;0.20;0.10;;;19.60;36.60;;;;;;4977197;28;20045;-84
2021/03/21 02:40:50;;;;;;;0.30;0.10;;;19.60;36.60;;;;;;5044696;28;20033;-84
2021/03/21 02:44:01;;;;;;;0.40;0.10;;;19.50;36.60;;;;;;5041268;28;20691;-84
2021/03/21 02:46:32;;;;;;;0.40;0.10;;;19.60;36.50;;;;;;5023814;28;20033;-84
2021/03/21 02:49:22;;;;;;;0.50;0.20;;;19.50;36.50;;;;;;5029215;28;20032;-83
2021/03/21 02:51:54;;;;;;;0.93;0.10;;;19.50;36.50;;;;;;5028040;28;20024;-84
2021/03/21 02:54:23;;;;;;;;;;;19.50;36.50;;;;;;5030840;28;20031;-84
2021/03/21 02:56:56;;;;;;;0.77;0.10;;;19.50;36.60;;;;;;5044800;28;19920;-84
2021/03/21 02:59:26;;;;;;;0.30;0.10;;;19.50;36.60;;;;;;5026542;28;20040;-85
2021/03/21 03:01:58;;;;;;;0.30;0.10;;;19.50;36.50;;;;;;5027595;28;20036;-85
2021/03/21 03:04:32;;;;;;;0.50;0.20;;;19.50;36.50;;;;;;5025948;28;20094;-85
2021/03/21 03:07:06;;;;;;;0.40;0.20;;;19.50;36.60;;;;;;5043457;28;20481;-84
2021/03/21 03:09:44;;;;;;;1.10;0.20;;;19.50;36.50;;;;;;5027042;28;20391;-85
2021/03/21 03:12:31;;;;;;;0.98;0.10;;;19.50;36.60;;;;;;5025085;28;20047;-84
2021/03/21 03:14:57;;;;;;;0.40;0.15;;;19.50;36.60;;;;;;5029711;28;20035;-84
2021/03/21 03:17:30;;;;;;;0.30;0.10;;;19.50;36.60;;;;;;5030006;28;20033;-84
2021/03/21 03:20:08;;;;;;;0.20;0.10;;;19.50;36.60;;;;;;5026468;28;20572;-85
2021/03/21 03:22:42;;;;;;;0.95;0.20;;;19.40;36.60;;;;;;5026739;28;20028;-84
2021/03/21 03:25:14;;;;;;;0.63;0.10;;;19.50;36.70;;;;;;5046228;28;20075;-84
2021/03/21 03:27:58;;;;;;;0.52;0.20;;;19.50;36.70;;;;;;5045586;28;20284;-85
2021/03/21 03:30:33;;;;;;;0.30;0.10;;;19.40;36.60;;;;;;5025307;28;20400;-84
2021/03/21 03:32:59;;;;;;;0.30;0.10;;;19.40;36.60;;;;;;5045526;28;20480;-84
2021/03/21 03:35:25;;;;;;;0.40;0.17;;;19.40;36.60;;;;;;5027561;28;20029;-84
2021/03/21 03:37:50;;;;;;;0.38;0.15;;;19.40;36.50;;;;;;5025800;28;20098;-83
2021/03/21 03:40:18;;;;;;;0.40;0.15;;;19.40;36.60;;;;;;5060834;28;20032;-84
2021/03/21 03:42:56;;;;;;;0.28;0.10;;;19.40;36.60;;;;;;5046169;28;20041;-84
2021/03/21 03:45:36;;;;;;;0.60;0.10;;;19.40;36.60;;;;;;5026642;28;20025;-83
2021/03/21 03:48:27;;;;;;;0.32;0.10;;;19.40;36.60;;;;;;5043233;28;20025;-85
2021/03/21 03:51:12;;;;;;;0.47;0.20;;;19.40;36.60;;;;;;5059466;28;20496;-85
2021/03/21 03:53:45;;;;;;;0.90;0.20;;;19.40;36.60;;;;;;5027148;28;20524;-84
2021/03/21 03:56:22;;;;;;;0.30;0.10;;;19.40;36.60;;;;;;5042872;28;20041;-85
2021/03/21 03:59:13;;;;;;;0.38;0.13;;;19.40;36.60;;;;;;5027661;28;20398;-85
2021/03/21 04:01:41;;;;;;;0.28;0.10;;;19.40;36.60;;;;;;5040155;28;20024;-85
2021/03/21 04:04:34;;;;;;;0.40;0.20;;;19.40;36.60;;;;;;5027253;28;20442;-84
2021/03/21 04:07:38;;;;;;;0.45;0.10;;;19.40;36.60;;;;;;5027049;28;20021;-85
2021/03/21 04:10:18;;;;;;;0.40;0.10;;;19.40;36.60;;;;;;5015791;28;20370;-86
2021/03/21 04:12:58;;;;;;;0.35;0.20;;;19.40;36.70;;;;;;5028684;28;20032;-87
2021/03/21 04:15:28;;;;;;;0.20;0.10;;;19.40;36.70;;;;;;5025932;28;20029;-86
2021/03/21 04:18:12;;;;;;;0.20;0.10;;;19.40;36.70;;;;;;5027188;28;20497;-86
2021/03/21 04:21:22;;;;;;;0.30;0.10;;;19.30;36.70;;;;;;5044505;28;20029;-85
2021/03/21 04:24:00;;;;;;;0.20;0.10;;;19.40;36.70;;;;;;4995099;28;20040;-85
2021/03/21 04:26:36;;;;;;;0.30;0.10;;;19.40;36.70;;;;;;5029502;28;20070;-86
2021/03/21 04:29:07;;;;;;;0.28;0.10;;;19.40;36.70;;;;;;5044718;28;20032;-86
2021/03/21 04:31:34;;;;;;;0.30;0.10;;;19.40;36.70;;;;;;5028983;28;20085;-86
2021/03/21 04:34:04;;;;;;;0.30;0.10;;;19.40;36.70;;;;;;5027060;28;20456;-85
2021/03/21 04:36:35;;;;;;;0.30;0.10;;;19.40;36.70;;;;;;5027074;28;20055;-87
2021/03/21 04:39:07;;;;;;;0.45;0.17;;;19.30;36.70;;;;;;5047959;28;20023;-86
2021/03/21 04:41:35;;;;;;;;;;;19.30;36.70;;;;;;5046065;28;20025;-84
2021/03/21 04:44:14;;;;;;;0.40;0.10;;;19.40;36.70;;;;;;5043776;28;20414;-85
2021/03/21 04:47:03;;;;;;;0.30;0.10;;;19.30;36.70;;;;;;5062152;28;20373;-84
2021/03/21 04:49:29;;;;;;;0.20;0.10;;;19.30;36.70;;;;;;5020494;28;20063;-85
2021/03/21 04:52:16;;;;;;;0.30;0.10;;;19.30;36.60;;;;;;5029972;28;20447;-85
2021/03/21 04:54:46;;;;;;;0.25;0.10;;;19.30;36.60;;;;;;5027866;28;20064;-85
2021/03/21 04:57:28;;;;;;;0.20;0.10;;;19.40;36.70;;;;;;5029784;28;20485;-84
2021/03/21 04:59:54;;;;;;;;;;;19.30;36.60;;;;;;5045952;28;20033;-84
2021/03/21 05:02:30;;;;;;;0.40;0.10;;;19.30;36.60;;;;;;5064776;28;19909;-84
2021/03/21 05:05:11;;;;;;;0.30;0.10;;;19.30;36.60;;;;;;5027660;28;20031;-86
2021/03/21 05:07:59;;;;;;;0.30;0.10;;;19.40;36.60;;;;;;5048152;28;20021;-84
2021/03/21 05:10:31;;;;;;;0.40;0.10;;;19.40;36.60;;;;;;5044958;28;20594;-84
2021/03/21 05:13:06;;;;;;;0.17;0.10;;;19.40;36.60;;;;;;5024921;28;20608;-83
2021/03/21 05:15:57;;;;;;;0.20;0.10;;;19.40;36.60;;;;;;5029824;28;20078;-85
2021/03/21 05:18:55;;;;;;;0.65;0.10;;;19.40;36.70;;;;;;5043239;28;20032;-86
2021/03/21 05:21:21;;;;;;;0.30;0.10;;;19.30;36.60;;;;;;5025700;28;20037;-87
2021/03/21 05:24:01;;;;;;;0.38;0.10;;;19.40;36.70;;;;;;5029013;28;20031;-86
2021/03/21 05:26:37;;;;;;;0.20;0.10;;;19.30;36.60;;;;;;5039139;28;20051;-87
2021/03/21 05:29:18;;;;;;;0.10;0.10;;;19.40;36.70;;;;;;5023203;28;20425;-86
2021/03/21 05:31:44;;;;;;;0.30;0.10;;;19.40;36.70;;;;;;5056494;28;20029;-87
2021/03/21 05:34:10;;;;;;;0.17;0.08;;;19.30;36.60;;;;;;5029378;28;20087;-86
2021/03/21 05:36:49;;;;;;;0.20;0.08;;;19.30;36.60;;;;;;5027702;28;20029;-86
2021/03/21 05:39:44;;;;;;;0.10;0.10;;;19.40;36.70;;;;;;5045628;28;20090;-84
2021/03/21 05:42:32;;;;;;;0.10;0.00;;;19.30;36.60;;;;;;5014847;28;20036;-86
2021/03/21 05:45:28;;;;;;;0.22;0.10;;;19.30;36.70;;;;;;5027166;28;20078;-86
2021/03/21 05:48:22;;;;;;;0.40;0.10;;;19.30;36.70;;;;;;5025100;28;20033;-85
2021/03/21 05:51:15;;;;;;;0.28;0.10;;;19.30;36.70;;;;;;5048341;28;20060;-85
2021/03/21 05:53:44;;;;;;;0.85;0.00;;;19.30;36.70;;;;;;5028005;28;20022;-85
2021/03/21 05:56:25;;;;;;;0.40;0.10;;;19.30;36.70;;;;;;5029090;28;20054;-85
2021/03/21 05:59:09;;;;;;;0.40;0.10;;;19.30;36.70;;;;;;5031659;28;20119;-85
2021/03/21 06:01:50;;;;;;;0.22;0.10;;;19.30;36.70;;;;;;5026208;28;20032;-85
2021/03/21 06:04:53;;;;;;;0.25;0.10;;;19.30;36.70;;;;;;5059640;28;20029;-85
2021/03/21 06:07:37;;;;;;;0.20;0.03;;;19.30;36.70;;;;;;5042039;28;20736;-86
2021/03/21 06:10:37;;;;;;;0.28;0.05;;;19.30;36.80;;;;;;5041690;28;20025;-86
2021/03/21 06:13:30;;;;;;;0.25;0.10;;;19.30;36.80;;;;;;5026216;28;20029;-85
2021/03/21 06:16:14;;;;;;;0.10;0.00;;;19.30;36.80;;;;;;5025545;28;20025;-86
2021/03/21 06:18:45;;;;;;;0.20;0.10;;;19.30;36.80;;;;;;5025213;28;20067;-86
2021/03/21 06:21:29;;;;;;;0.40;0.10;;;19.30;36.80;;;;;;5021573;28;20120;-86
2021/03/21 06:24:17;;;;;;;0.15;0.00;;;19.30;36.80;;;;;;5022034;28;20033;-86
2021/03/21 06:27:04;;;;;;;0.88;0.00;;;19.30;36.90;;;;;;5043747;28;20029;-86
2021/03/21 06:29:54;;;;;;;0.10;0.00;;;19.30;36.80;;;;;;5027267;28;20476;-85
2021/03/21 06:32:19;;;;;;;0.30;0.10;;;19.30;36.80;;;;;;5026578;28;20033;-85
2021/03/21 06:35:15;;;;;;;0.47;0.10;;;19.30;36.80;;;;;;5024825;28;20254;-86
2021/03/21 06:38:15;;;;;;;0.17;0.00;;;19.20;36.80;;;;;;5025334;28;20255;-85
2021/03/21 06:41:29;;;;;;;0.57;0.10;;;19.20;36.80;;;;;;5027798;28;20029;-85
2021/03/21 06:44:06;;;;;;;0.28;0.10;;;19.20;36.80;;;;;;5027454;28;20226;-85
2021/03/21 06:46:46;;;;;;;0.35;0.00;;;19.20;36.90;;;;;;5039366;28;20025;-86
2021/03/21 06:49:33;;;;;;;0.15;0.10;;;19.20;36.80;;;;;;5045123;28;20021;-86
2021/03/21 06:52:07;;;;;;;0.28;0.10;;;19.20;36.80;;;;;;5041309;28;20032;-84
2021/03/21 06:54:56;;;;;;;0.10;0.00;;;19.20;36.90;;;;;;5033890;28;20086;-85
2021/03/21 06:57:44;;;;;;;0.38;0.10;;;19.20;36.80;;;;;;5036881;28;20096;-87
2021/03/21 07:00:28;;;;;;;0.25;0.00;;;19.20;36.90;;;;;;5043139;28;20414;-86
2021/03/21 07:03:21;;;;;;;0.32;0.20;;;19.20;36.80;;;;;;5030274;28;20062;-87
2021/03/21 07:06:08;;;;;;;0.20;0.00;;;19.20;36.80;;;;;;5031481;28;20024;-87
2021/03/21 07:08:59;;;;;;;0.10;0.03;;;19.20;36.80;;;;;;5044369;28;20052;-85
2021/03/21 07:11:42;;;;;;;0.20;0.00;;;19.20;36.80;;;;;;5040727;28;20040;-87
2021/03/21 07:14:07;;;;;;;0.38;0.00;;;19.20;36.80;;;;;;5042339;28;20476;-86
2021/03/21 07:16:55;;;;;;;0.28;0.00;;;19.20;36.90;;;;;;5025769;28;20032;-85
2021/03/21 07:19:51;;;;;;;0.20;0.10;;;19.20;36.90;;;;;;5024988;28;20060;-86
2021/03/21 07:22:59;;;;;;;0.10;0.00;;;19.20;36.90;;;;;;5061004;28;20051;-86
2021/03/21 07:25:43;;;;;;;0.15;0.00;;;19.20;36.90;;;;;;5005158;28;20044;-86
2021/03/21 07:28:48;;;;;;;0.10;0.00;;;19.20;36.90;;;;;;5025494;28;20033;-86
2021/03/21 07:31:32;;;;;;;0.20;0.00;;;19.20;37.00;;;;;;5025277;28;20044;-85
2021/03/21 07:34:41;;;;;;;0.60;0.00;;;19.20;36.90;;;;;;5026874;28;20449;-84
2021/03/21 07:37:40;;;;;;;0.20;0.10;;;19.20;36.90;;;;;;5059214;28;20033;-86
2021/03/21 07:40:17;;;;;;;0.15;0.10;;;19.20;37.10;;;;;;5040672;28;20139;-85
2021/03/21 07:43:06;;;;;;;2.40;0.10;;;19.20;37.00;;;;;;5042664;28;20013;-86
2021/03/21 07:45:36;;;;;;;1.10;0.10;;;19.20;36.90;;;;;;5026222;28;20082;-85
2021/03/21 07:48:47;;;;;;;0.40;0.08;;;19.20;37.10;;;;;;5029383;28;20123;-86
2021/03/21 07:51:43;;;;;;;0.45;0.00;;;19.20;37.10;;;;;;5029735;28;20322;-84
2021/03/21 07:54:23;;;;;;;0.30;0.00;;;19.20;37.20;;;;;;5027161;28;20484;-85
2021/03/21 07:57:03;;;;;;;1.15;0.10;;;19.20;37.30;;;;;;5029385;28;20027;-85
2021/03/21 07:59:34;;;;;;;0.50;0.10;;;19.20;37.50;;;;;;5043287;28;20028;-85
2021/03/21 08:02:00;;;;;;;2.53;0.10;;;19.20;37.40;;;;;;5024995;28;20386;-84
2021/03/21 08:04:32;;;;;;;0.10;0.00;;;19.20;37.70;;;;;;5026036;28;20044;-85
2021/03/21 08:07:01;;;;;;;0.15;0.00;;;19.20;37.80;;;;;;5063661;28;20060;-86
2021/03/21 08:09:39;;;;;;;0.45;0.00;;;19.20;37.70;;;;;;5045651;28;20260;-86
2021/03/21 08:12:17;;;;;;;2.97;0.00;;;19.20;37.80;;;;;;5029936;28;20048;-86
2021/03/21 08:14:45;;;;;;;0.73;0.00;;;19.20;37.60;;;;;;5028579;28;20718;-87
2021/03/21 08:17:25;;;;;;;0.20;0.00;;;19.20;37.90;;;;;;5026872;28;20037;-85
2021/03/21 08:19:58;;;;;;;1.80;0.08;;;19.20;37.90;;;;;;5029174;28;20120;-85
2021/03/21 08:22:27;;;;;;;0.40;0.00;;;19.20;37.50;;;;;;5029618;28;20029;-89
2021/03/21 08:24:58;;;;;;;0.38;0.10;;;19.20;37.70;;;;;;5028474;28;20551;-88
2021/03/21 08:27:28;;;;;;;0.20;0.00;;;19.20;37.80;;;;;;5027551;28;20028;-88
2021/03/21 08:30:01;;;;;;;0.40;0.10;;;19.20;37.60;;;;;;5027323;28;20119;-85
2021/03/21 08:32:28;;;;;;;1.02;0.10;;;19.20;37.50;;;;;;5029221;28;20064;-85
2021/03/21 08:34:54;;;;;;;0.17;0.00;;;19.20;37.70;;;;;;5044198;28;20028;-85
2021/03/21 08:37:28;;;;;;;0.77;0.10;;;19.20;37.50;;;;;;5044896;28;20040;-84
2021/03/21 08:40:15;;;;;;;2.50;0.10;;;19.20;37.40;;;;;;5042471;28;20493;-84
2021/03/21 08:42:44;;;;;;;0.50;0.10;;;19.20;37.40;;;;;;5044994;28;20125;-85
2021/03/21 08:45:12;;;;;;;0.82;0.10;;;19.10;37.20;;;;;;5060556;28;20017;-86
2021/03/21 08:47:39;;;;;;;2.95;0.10;;;19.20;37.30;;;;;;5029882;28;20116;-85
2021/03/21 08:50:18;;;;;;;0.70;0.20;;;19.20;37.20;;;;;;5042131;28;20116;-85
2021/03/21 08:52:45;;;;;;;3.90;0.43;;;19.20;37.20;;;;;;5026398;28;20503;-85
2021/03/21 08:55:43;;;;;;;1.35;0.30;;;19.20;37.30;;;;;;5045771;28;20036;-85
2021/03/21 08:58:25;;;;;;;0.70;0.30;;;19.20;37.10;;;;;;4995344;28;20549;-85
2021/03/21 09:00:53;;;;;;;;;;;19.10;37.20;;;;;;5046336;28;20029;-85
2021/03/21 09:03:27;;;;;;;1.23;0.30;;;19.20;37.10;;;;;;5044768;28;19931;-85
2021/03/21 09:05:58;;;;;;;0.73;0.25;;;19.20;37.10;;;;;;5029039;28;20028;-85
2021/03/21 09:08:33;;;;;;;1.17;0.30;;;19.20;37.10;;;;;;5047521;28;20029;-85
2021/03/21 09:11:02;;;;;;;0.90;0.32;;;19.20;37.20;;;;;;5045259;28;20025;-85
2021/03/21 09:13:32;;;;;;;0.73;0.20;;;19.20;37.10;;;;;;5047409;28;20037;-85
2021/03/21 09:15:57;;;;;;;0.70;0.20;;;19.10;37.00;;;;;;5041374;28;20498;-85
2021/03/21 09:18:38;;;;;;;1.15;0.30;;;19.20;37.00;;;;;;5026974;28;20096;-85
2021/03/21 09:21:23;;;;;;;1.15;0.20;;;19.20;37.00;;;;;;5030251;28;20024;-85
2021/03/21 09:24:09;;;;;;;0.80;0.28;;;19.10;37.00;;;;;;5025921;28;20025;-84
2021/03/21 09:26:39;;;;;;;1.33;0.30;;;19.20;37.00;;;;;;5046631;28;20025;-84
2021/03/21 09:29:23;;;;;;;0.70;0.30;;;19.10;37.00;;;;;;5029884;28;20036;-85
2021/03/21 09:31:53;;;;;;;1.08;0.20;;;19.10;37.00;;;;;;5043114;28;20027;-84
2021/03/21 09:34:40;;;;;;;0.60;0.20;;;19.20;37.00;;;;;;5026764;28;20510;-85
2021/03/21 09:37:10;;;;;;;2.50;0.20;;;19.10;37.00;;;;;;5033683;28;20033;-85
2021/03/21 09:39:42;;;;;;;1.65;0.30;;;19.20;37.00;;;;;;5025025;28;20436;-84
2021/03/21 09:42:13;;;;;;;1.83;0.60;;;19.10;36.90;;;;;;5042333;28;20563;-85
2021/03/21 09:44:43;;;;;;;0.70;0.20;;;19.10;36.90;;;;;;5022078;28;20045;-84
2021/03/21 09:47:27;;;;;;;0.80;0.20;;;19.10;36.90;;;;;;5046480;28;20024;-84
2021/03/21 09:50:17;;;;;;;1.75;0.30;;;19.10;36.90;;;;;;5042431;28;20366;-84
2021/03/21 09:52:54;;;;;;;1.48;0.35;;;19.10;36.90;;;;;;5042530;28;20021;-85
2021/03/21 09:55:38;;;;;;;1.95;0.43;;;19.10;36.90;;;;;;5045549;28;20024;-85
2021/03/21 09:58:14;;;;;;;2.05;0.40;;;19.10;36.90;;;;;;5027010;28;20017;-84
2021/03/21 10:00:42;;;;;;;1.80;0.20;;;19.10;36.90;;;;;;5042002;28;20054;-85
2021/03/21 10:03:24;;;;;;;0.88;0.20;;;19.10;36.90;;;;;;5027041;28;20024;-84
2021/03/21 10:06:09;;;;;;;0.80;0.20;;;19.10;36.90;;;;;;5028659;28;20111;-85
2021/03/21 10:09:08;;;;;;;2.10;0.22;;;19.10;36.90;;;;;;5030317;28;20020;-85
2021/03/21 10:11:37;;;;;;;1.40;0.30;;;19.10;36.90;;;;;;5042871;28;20032;-82
2021/03/21 10:14:21;;;;;;;0.57;0.20;;;19.10;36.90;;;;;;5044217;28;20020;-83
2021/03/21 10:16:51;;;;;;;1.40;0.28;;;19.10;36.90;;;;;;5046548;28;20025;-84
2021/03/21 10:19:38;;;;;;;1.35;0.38;;;19.10;36.90;;;;;;5046647;28;20032;-83
2021/03/21 10:22:31;;;;;;;0.95;0.20;;;19.10;36.90;;;;;;5024922;28;20029;-83
2021/03/21 10:25:20;;;;;;;4.40;0.40;;;19.10;36.90;;;;;;5039600;28;20040;-83
2021/03/21 10:27:51;;;;;;;1.88;0.28;;;19.10;36.90;;;;;;5024710;28;20028;-83
2021/03/21 10:30:23;;;;;;;1.05;0.30;;;19.10;36.90;;;;;;5044830;28;20028;-83
2021/03/21 10:32:50;;;;;;;2.05;0.47;;;19.10;36.90;;;;;;5040976;28;20029;-84
2021/03/21 10:35:38;;;;;;;1.88;0.30;;;19.10;36.80;;;;;;5028331;28;20036;-84
2021/03/21 10:38:11;;;;;;;1.80;0.30;;;19.10;36.80;;;;;;5031750;28;20044;-85
2021/03/21 10:40:43;;;;;;;0.75;0.40;;;19.10;36.90;;;;;;5057572;28;20107;-85
2021/03/21 10:43:21;;;;;;;1.15;0.30;;;19.10;36.80;;;;;;5042384;28;20086;-86
2021/03/21 10:45:52;;;;;;;2.00;0.32;;;19.10;36.90;;;;;;5026958;28;20493;-86
2021/03/21 10:48:18;;;;;;;2.33;0.35;;;19.10;36.90;;;;;;5029395;28;20532;-86
2021/03/21 10:50:57;;;;;;;0.73;0.20;;;19.10;36.90;;;;;;5029644;28;20115;-86
2021/03/21 10:53:35;;;;;;;0.70;0.20;;;19.20;36.90;;;;;;5027898;28;20059;-85
2021/03/21 10:56:01;;;;;;;1.38;0.20;;;19.20;36.90;;;;;;5039120;28;20032;-83
2021/03/21 10:58:35;;;;;;;0.88;0.28;;;19.10;36.90;;;;;;5073845;28;20089;-84
2021/03/21 11:01:17;;;;;;;1.25;0.40;;;19.20;36.90;;;;;;5047300;28;20544;-84
2021/03/21 11:03:48;;;;;;;1.40;0.30;;;19.10;36.90;;;;;;5023958;28;20396;-83
2021/03/21 11:06:20;;;;;;;5.13;0.20;;;19.10;36.90;;;;;;5040759;28;20332;-83
2021/03/21 11:08:46;;;;;;;;;;;19.10;36.90;;;;;;5026841;28;20028;-83
2021/03/21 11:11:33;;;;;;;0.93;0.50;;;19.10;36.90;;;;;;5029841;28;19916;-86
2021/03/21 11:14:10;;;;;;;0.90;0.10;;;19.10;36.90;;;;;;5029073;28;20025;-84
2021/03/21 11:16:35;;;;;;;1.45;0.50;;;19.10;36.90;;;;;;5043501;28;20039;-83
2021/03/21 11:19:05;;;;;;;4.18;0.40;;;19.10;36.90;;;;;;5046937;28;20037;-84
2021/03/21 11:21:34;;;;;;;1.25;0.30;;;19.10;36.90;;;;;;5032624;28;20025;-84
2021/03/21 11:24:01;;;;;;;1.05;0.30;;;19.20;37.00;;;;;;5027371;28;20025;-85
2021/03/21 11:26:30;;;;;;;1.58;0.35;;;19.20;37.50;;;;;;5048740;28;20032;-85
2021/03/21 11:29:04;;;;;;;1.23;0.20;;;19.20;36.90;;;;;;5046765;28;20596;-85
2021/03/21 11:31:36;;;;;;;2.90;0.30;;;19.20;36.90;;;;;;5063903;28;20112;-84
2021/03/21 11:34:23;;;;;;;1.02;0.35;;;19.20;36.90;;;;;;5045827;28;20400;-85
2021/03/21 11:37:01;;;;;;;2.00;0.30;;;19.20;36.90;;;;;;5044899;28;20071;-85
2021/03/21 11:39:40;;;;;;;1.58;0.20;;;19.20;36.90;;;;;;5047343;28;20040;-85
2021/03/21 11:42:37;;;;;;;1.35;0.30;;;19.20;36.90;;;;;;5043949;28;20044;-85
2021/03/21 11:45:12;;;;;;;2.63;0.30;;;19.20;36.90;;;;;;5031243;28;20041;-85
2021/03/21 11:47:39;;;;;;;1.45;0.30;;;19.20;36.90;;;;;;5029874;28;20031;-85
2021/03/21 11:50:07;;;;;;;1.50;0.20;;;19.20;36.90;;;;;;5046712;28;20040;-85
2021/03/21 11:52:39;;;;;;;1.98;0.25;;;19.20;37.00;;;;;;5027231;28;20106;-85
2021/03/21 11:55:05;;;;;;;1.90;0.20;;;19.20;37.00;;;;;;5065732;28;20029;-85
2021/03/21 11:58:28;;;;;;;1.17;0.20;;;19.20;37.00;;;;;;5043926;28;20465;-85
2021/03/21 12:01:38;;;;;;;3.40;0.30;;;19.20;36.90;;;;;;4990692;28;20132;-85
2021/03/21 12:04:06;;;;;;;1.92;0.40;;;19.20;36.90;;;;;;5011515;28;20069;-84
2021/03/21 12:06:59;;;;;;;2.13;0.30;;;19.30;37.00;;;;;;5033969;28;20051;-84
2021/03/21 12:09:26;;;;;;;1.83;0.30;;;19.20;36.90;;;;;;5028184;28;20072;-85
2021/03/21 12:11:52;;;;;;;1.35;0.40;;;19.20;36.90;;;;;;5044301;28;20139;-85
2021/03/21 12:14:30;;;;;;;1.67;0.55;;;19.20;36.90;;;;;;5047221;28;20112;-84
2021/03/21 12:16:56;;;;;;;2.10;0.30;;;19.20;36.90;;;;;;5047569;28;20120;-85
2021/03/21 12:19:27;;;;;;;3.60;0.95;;;19.20;36.90;;;;;;5068117;28;20052;-85
2021/03/21 12:22:04;;;;;;;1.85;0.38;;;19.20;36.90;;;;;;5064872;28;20488;-85
2021/03/21 12:24:32;;;;;;;1.88;0.43;;;19.20;36.90;;;;;;5031717;28;20047;-85
2021/03/21 12:27:20;;;;;;;4.13;0.50;;;19.20;36.90;;;;;;5032167;28;20171;-85
2021/03/21 12:29:46;;;;;;;3.28;0.77;;;19.20;36.90;;;;;;5030237;28;20071;-85
2021/03/21 12:32:25;;;;;;;2.83;0.35;;;19.20;36.90;;;;;;5065044;28;20029;-85
2021/03/21 12:34:52;;;;;;;4.30;1.15;;;19.20;37.40;;;;;;5030575;28;20404;-85
2021/03/21 12:37:21;;;;;;;3.72;0.60;;;19.20;36.90;;;;;;5049260;28;20119;-84
2021/03/21 12:39:52;;;;;;;4.55;0.70;;;19.20;36.90;;;;;;5027385;28;20110;-84
2021/03/21 12:42:27;;;;;;;3.20;0.75;;;19.20;36.90;;;;;;5047488;28;20040;-84
2021/03/21 12:45:08;;;;;;;3.20;0.65;;;19.20;36.90;;;;;;5026673;28;20025;-84
2021/03/21 12:47:38;;;;;;;2.97;0.85;;;19.30;37.00;;;;;;5041837;28;20028;-85
2021/03/21 12:50:24;;;;;;;4.90;1.23;;;19.40;37.10;;;;;;5027967;28;20044;-87
2021/03/21 12:52:50;;;;;;;2.20;0.68;;;19.60;36.70;;;;;;5023705;28;20056;-86
2021/03/21 12:55:17;;;;;;;3.50;1.33;;;19.70;36.60;;;;;;5051187;28;20033;-86
2021/03/21 12:57:43;;;;;;;3.55;1.00;;;19.90;36.60;;;;;;5063209;28;20206;-86
2021/03/21 13:00:17;;;;;;;5.00;1.73;;;20.00;36.40;;;;;;5050589;28;20035;-86
2021/03/21 13:02:43;;;;;;;3.35;1.30;;;20.10;36.30;;;;;;5045127;28;20022;-86
2021/03/21 13:05:22;;;;;;;5.13;1.70;;;20.20;36.30;;;;;;5031400;28;20025;-87
2021/03/21 13:07:48;;;;;;;3.45;1.27;;;20.30;36.20;;;;;;5041744;28;20437;-87
2021/03/21 13:10:15;;;;;;;3.42;1.33;;;20.30;36.20;;;;;;5031138;28;20064;-86
2021/03/21 13:12:41;;;;;;;3.35;1.20;;;20.40;36.20;;;;;;5031226;28;20554;-86
2021/03/21 13:15:08;;;;;;;5.13;1.55;;;20.40;36.20;;;;;;5043435;28;20095;-86
2021/03/21 13:17:33;;;;;;;3.83;1.13;;;20.50;36.20;;;;;;5052954;28;20029;-86
2021/03/21 13:19:59;;;;;;;4.72;1.27;;;20.50;36.30;;;;;;5049837;28;20039;-87
2021/03/21 13:22:25;;;;;;;3.05;1.25;;;20.50;36.20;;;;;;5027610;28;20485;-86
2021/03/21 13:24:51;;;;;;;2.95;1.30;;;20.50;36.30;;;;;;5044388;28;20063;-87
2021/03/21 13:27:16;;;;;;;5.90;1.75;;;20.50;36.30;;;;;;5028749;28;20060;-86
2021/03/21 13:29:42;;;;;;;3.28;1.35;;;20.60;36.40;;;;;;5030774;28;20036;-86
2021/03/21 13:32:08;;;;;;;4.93;1.27;;;20.50;36.30;;;;;;5047393;28;20115;-86
2021/03/21 13:34:34;;;;;;;3.10;1.27;;;20.50;36.40;;;;;;5031279;28;20447;-86
2021/03/21 13:37:02;;;;;;;3.33;1.23;;;20.50;36.50;;;;;;5030404;28;20059;-86